Krasnoural'sk, Russia
Current Conditions -  °F | °C
As of 7:30 AM on Tuesday 21 Oct 2014 (Local Time) from USSS Reporting Station
Clear Clear  
Wind Chill: -5°   Ceiling: Unl
Heat Index:   Visibility: 6mi
Dew Point:   Wind: 7mph
Humidity: 92%   Direction: 220°SW
Pressure: 29.74"   Gusts: NA
Location:  58.22°N, 60.06°E
Report Text: USSS 210230Z 22003MPS CAVOK M14/M15 Q1007 76820336 26850337NOSIG RMK QFE735
Loading
Personal Weather Stations






























Interactive Weather Map
Tropical Storm Tracking
New forecast layout! Learn more

10-Day Weather Forecast

Advertisements
Track Severe Weather on mobile